Time;durP1;ratioP1;P1;durP2;ratioP2;P2;SDS_P1;SDS_P2;PMS_P1;PMS_P2;Temp;Humidity;BMP_temperature;BMP_pressure;BME280_temperature;BME280_humidity;BME280_pressure;Samples;Min_cycle;Max_cycle;Signal;HPM_P1;HPM_P2
2023/08/04 00:01:12;;;;;;;3.30;2.50;;;;;;;18.85;87.57;99681.34;10522284;28;20517;-78
2023/08/04 00:06:19;;;;;;;3.88;2.42;;;;;;;18.35;91.11;99684.78;10510407;28;20047;-78
2023/08/04 00:11:22;;;;;;;3.40;2.53;;;;;;;18.06;93.75;99677.66;10508554;28;20826;-78
2023/08/04 00:16:24;;;;;;;2.35;2.10;;;;;;;17.98;93.85;99661.97;10511820;28;20037;-77
2023/08/04 00:21:27;;;;;;;3.92;2.10;;;;;;;17.89;93.62;99641.91;10480863;28;20037;-78
2023/08/04 00:26:29;;;;;;;4.43;2.53;;;;;;;17.92;92.21;99649.50;10479325;28;20512;-76
2023/08/04 00:31:32;;;;;;;2.97;2.28;;;;;;;17.96;89.66;99636.53;10504094;28;20411;-79
2023/08/04 00:36:34;;;;;;;2.30;2.08;;;;;;;18.01;87.43;99630.72;10506333;28;20384;-79
2023/08/04 00:41:37;;;;;;;2.50;1.67;;;;;;;18.02;88.26;99649.78;10502025;28;20037;-79
2023/08/04 00:46:39;;;;;;;2.35;1.88;;;;;;;17.88;91.48;99660.53;10520653;28;20049;-79
2023/08/04 00:51:42;;;;;;;2.30;1.95;;;;;;;17.82;91.22;99648.03;10493922;28;20044;-79
2023/08/04 00:56:45;;;;;;;1.70;1.55;;;;;;;17.74;91.72;99660.91;10529180;28;20048;-75
2023/08/04 01:01:48;;;;;;;2.15;1.77;;;;;;;17.70;91.87;99659.19;10520047;28;20052;-82
2023/08/04 01:07:17;;;;;;;2.28;1.70;;;;;;;17.61;91.41;99662.09;10484528;28;20509;-78
2023/08/04 01:12:23;;;;;;;2.95;1.70;;;;;;;17.67;91.67;99649.56;10499750;28;20691;-80
2023/08/04 01:17:28;;;;;;;1.90;1.70;;;;;;;17.68;90.24;99642.88;10470613;28;20670;-79
2023/08/04 01:22:30;;;;;;;2.60;1.77;;;;;;;17.70;88.73;99648.91;10494997;28;20049;-82
2023/08/04 01:27:41;;;;;;;2.10;1.63;;;;;;;17.72;87.54;99657.69;10528378;28;20495;-81
2023/08/04 01:32:48;;;;;;;2.67;1.58;;;;;;;17.71;87.77;99649.72;10485937;28;20045;-81
2023/08/04 01:37:50;;;;;;;;;;;;;;;17.61;87.94;99656.53;10500879;28;20055;-81
2023/08/04 01:42:53;;;;;;;2.33;1.35;;;;;;;17.62;87.39;99672.03;10514230;28;20424;-80
2023/08/04 01:47:56;;;;;;;3.70;1.35;;;;;;;17.59;87.21;99678.28;10491189;28;20048;-80
2023/08/04 01:52:58;;;;;;;2.70;1.50;;;;;;;17.52;86.83;99675.28;10496393;28;20040;-80
2023/08/04 01:58:01;;;;;;;1.73;1.42;;;;;;;17.43;87.89;99683.75;10511275;28;20407;-81
2023/08/04 02:03:03;;;;;;;2.95;1.80;;;;;;;17.46;86.78;99687.78;10487856;28;20036;-81
2023/08/04 02:08:11;;;;;;;2.55;1.50;;;;;;;17.27;87.38;99679.28;10508932;28;20512;-81
2023/08/04 02:13:14;;;;;;;2.90;1.42;;;;;;;17.21;89.26;99675.94;10494793;28;20053;-81
2023/08/04 02:18:21;;;;;;;3.88;1.80;;;;;;;16.99;89.99;99676.41;10507354;28;20418;-81
2023/08/04 02:23:23;;;;;;;;;;;;;;;16.99;91.22;99685.53;10527123;28;20052;-82
2023/08/04 02:28:25;;;;;;;2.10;1.25;;;;;;;17.04;91.30;99685.31;10501467;28;20031;-81
2023/08/04 02:33:27;;;;;;;1.38;1.27;;;;;;;17.04;90.93;99676.19;10525314;28;20040;-81
2023/08/04 02:38:35;;;;;;;1.98;1.08;;;;;;;17.09;91.15;99668.44;10513301;28;20044;-80
2023/08/04 02:43:37;;;;;;;;;;;;;;;17.16;90.75;99679.75;10521530;28;20057;-81
2023/08/04 02:48:40;;;;;;;1.60;1.08;;;;;;;17.21;91.59;99669.59;10506807;28;20487;-82
2023/08/04 02:53:45;;;;;;;1.92;1.30;;;;;;;17.16;91.60;99660.34;10523083;28;20044;-81
2023/08/04 02:58:48;;;;;;;3.25;1.30;;;;;;;17.12;91.74;99669.72;10484758;28;20528;-81
2023/08/04 03:03:50;;;;;;;2.53;1.58;;;;;;;17.17;91.80;99664.72;10510495;28;20051;-81
2023/08/04 03:08:52;;;;;;;2.95;1.50;;;;;;;17.14;91.71;99659.88;10490940;28;20040;-80
2023/08/04 03:13:54;;;;;;;3.13;1.48;;;;;;;17.23;91.64;99659.75;10517393;28;20039;-81
2023/08/04 03:18:57;;;;;;;1.23;1.13;;;;;;;17.32;91.45;99667.94;10518957;28;20045;-82
2023/08/04 03:23:59;;;;;;;1.75;1.20;;;;;;;17.27;91.59;99674.53;10513804;28;20033;-81
2023/08/04 03:29:01;;;;;;;2.70;1.60;;;;;;;17.12;92.24;99687.16;10517182;28;20049;-81
2023/08/04 03:34:03;;;;;;;1.60;1.40;;;;;;;17.23;92.16;99695.00;10475537;28;20047;-81
2023/08/04 03:39:06;;;;;;;2.13;1.70;;;;;;;17.73;89.89;99687.06;10490631;28;20043;-81
2023/08/04 03:44:08;;;;;;;3.50;1.58;;;;;;;17.58;89.56;99686.94;10476345;28;20052;-81
2023/08/04 03:49:16;;;;;;;2.95;1.70;;;;;;;17.39;90.83;99698.66;10524550;28;20044;-80
2023/08/04 03:54:18;;;;;;;;;;;;;;;17.35;92.06;99693.00;10517375;28;20055;-81
2023/08/04 03:59:20;;;;;;;2.20;1.38;;;;;;;17.51;91.28;99701.41;10483761;28;19931;-80
2023/08/04 04:04:22;;;;;;;3.15;1.92;;;;;;;18.45;88.61;99697.34;10522113;28;20529;-80
2023/08/04 04:09:25;;;;;;;3.13;1.90;;;;;;;20.75;76.84;99690.50;10505924;28;20059;-81
2023/08/04 04:14:28;;;;;;;5.00;2.03;;;;;;;21.64;72.59;99694.66;10500286;28;20116;-81
2023/08/04 04:19:30;;;;;;;4.32;1.73;;;;;;;21.65;71.29;99692.66;10507885;28;20052;-82
2023/08/04 04:24:33;;;;;;;2.28;1.77;;;;;;;22.36;68.21;99687.94;10505136;28;20045;-81
2023/08/04 04:29:35;;;;;;;5.57;2.05;;;;;;;21.99;69.67;99687.91;10503328;28;20036;-81
2023/08/04 04:34:38;;;;;;;3.17;1.90;;;;;;;21.99;67.69;99699.06;10531579;28;20040;-81
2023/08/04 04:39:40;;;;;;;2.10;1.63;;;;;;;20.38;72.54;99697.75;10512498;28;20041;-80
2023/08/04 04:44:43;;;;;;;3.28;1.55;;;;;;;19.83;75.95;99697.09;10493226;28;20044;-80
2023/08/04 04:49:45;;;;;;;2.13;1.60;;;;;;;19.85;77.10;99692.75;10483318;28;20522;-81
2023/08/04 04:54:48;;;;;;;2.00;1.45;;;;;;;20.69;73.39;99705.94;10527397;28;20055;-80
2023/08/04 04:59:50;;;;;;;1.88;1.27;;;;;;;20.69;71.40;99711.50;10491217;28;20045;-81
2023/08/04 05:04:52;;;;;;;2.25;1.90;;;;;;;20.25;75.20;99713.84;10523386;28;20526;-81
2023/08/04 05:09:55;;;;;;;2.22;1.65;;;;;;;20.86;72.22;99720.56;10513942;28;20051;-81
2023/08/04 05:14:57;;;;;;;1.63;1.42;;;;;;;20.17;73.98;99724.03;10504899;28;20416;-81
2023/08/04 05:19:59;;;;;;;2.35;1.60;;;;;;;19.82;75.98;99723.31;10516035;28;20048;-81
2023/08/04 05:25:02;;;;;;;2.35;1.63;;;;;;;20.20;74.34;99724.47;10520547;28;20040;-81
2023/08/04 05:30:05;;;;;;;2.63;1.67;;;;;;;19.95;74.95;99727.56;10504742;28;20487;-81
2023/08/04 05:35:09;;;;;;;1.60;1.27;;;;;;;20.73;73.39;99723.53;10497093;28;20798;-80
2023/08/04 05:40:11;;;;;;;2.33;1.60;;;;;;;22.37;66.43;99722.28;10515729;28;20037;-80
2023/08/04 05:45:13;;;;;;;2.10;1.42;;;;;;;22.54;66.94;99714.09;10515619;28;20036;-80
2023/08/04 05:50:16;;;;;;;2.20;1.48;;;;;;;20.79;70.96;99721.22;10505959;28;20051;-80
2023/08/04 05:55:19;;;;;;;1.90;1.50;;;;;;;20.74;71.68;99724.31;10507789;28;20059;-80
2023/08/04 06:00:23;;;;;;;1.75;1.40;;;;;;;20.94;71.20;99717.50;10484977;28;20036;-82
2023/08/04 06:05:25;;;;;;;2.15;1.45;;;;;;;21.97;66.23;99727.41;10480446;28;20052;-82
2023/08/04 06:10:27;;;;;;;1.70;1.60;;;;;;;20.87;69.95;99719.38;10488632;28;20041;-84
2023/08/04 06:15:29;;;;;;;1.58;1.33;;;;;;;23.79;62.69;99717.09;10471284;28;20040;-83
2023/08/04 06:20:32;;;;;;;1.42;1.20;;;;;;;25.15;55.71;99716.22;10486854;28;20037;-82
2023/08/04 06:25:34;;;;;;;3.05;1.55;;;;;;;25.20;56.10;99722.25;10438214;28;20420;-83
2023/08/04 06:30:37;;;;;;;3.33;2.10;;;;;;;24.39;58.52;99731.34;10450623;28;20052;-81
2023/08/04 06:35:41;;;;;;;4.18;2.00;;;;;;;24.76;57.18;99721.78;10468108;28;20048;-82
2023/08/04 06:40:43;;;;;;;4.97;2.22;;;;;;;25.37;55.57;99731.84;10485879;28;20049;-82
2023/08/04 06:45:45;;;;;;;5.68;2.33;;;;;;;24.51;56.74;99741.41;10447380;28;20048;-81
2023/08/04 06:50:53;;;;;;;4.63;2.17;;;;;;;25.11;56.01;99746.31;10479000;28;20044;-76
2023/08/04 06:55:55;;;;;;;3.45;2.22;;;;;;;25.62;52.99;99745.03;10496645;28;20502;-77
2023/08/04 07:00:57;;;;;;;4.00;1.90;;;;;;;24.42;57.39;99749.38;10526914;28;20043;-78
2023/08/04 07:06:00;;;;;;;4.10;2.17;;;;;;;23.73;58.35;99758.66;10503769;28;20037;-78
2023/08/04 07:11:02;;;;;;;4.30;2.10;;;;;;;25.28;55.01;99753.13;10522897;28;20060;-78
2023/08/04 07:16:05;;;;;;;3.75;1.88;;;;;;;25.11;55.40;99741.50;10491596;28;20047;-76
2023/08/04 07:21:11;;;;;;;4.25;2.08;;;;;;;24.40;57.13;99760.19;10525149;28;20032;-76
2023/08/04 07:26:14;;;;;;;5.22;1.75;;;;;;;23.17;60.38;99773.84;10515160;28;20047;-76
2023/08/04 07:31:16;;;;;;;3.13;1.92;;;;;;;25.49;55.02;99764.31;10516774;28;20055;-77
2023/08/04 07:36:19;;;;;;;4.68;2.47;;;;;;;27.43;50.48;99782.72;10512939;28;20056;-77
2023/08/04 07:41:23;;;;;;;2.10;1.70;;;;;;;26.32;52.11;99782.59;10515938;28;20048;-77
2023/08/04 07:46:27;;;;;;;3.03;1.80;;;;;;;25.01;54.92;99783.63;10506138;28;20048;-77
2023/08/04 07:51:29;;;;;;;3.40;1.92;;;;;;;26.01;51.29;99790.72;10494048;28;20072;-78
2023/08/04 07:56:32;;;;;;;5.20;1.95;;;;;;;24.26;55.09;99800.16;10522364;28;20040;-77
2023/08/04 08:01:35;;;;;;;3.28;1.73;;;;;;;25.08;54.24;99794.84;10514039;28;20037;-77
2023/08/04 08:06:37;;;;;;;1.90;1.50;;;;;;;25.29;52.44;99794.84;10525479;28;20047;-77
2023/08/04 08:11:40;;;;;;;2.63;1.60;;;;;;;26.52;49.98;99797.78;10522255;28;20051;-77
2023/08/04 08:16:42;;;;;;;3.42;1.80;;;;;;;27.90;46.21;99795.94;10507870;28;20064;-76
2023/08/04 08:21:44;;;;;;;3.10;1.75;;;;;;;27.19;47.98;99801.41;10518911;28;20033;-80
2023/08/04 08:26:46;;;;;;;2.40;1.65;;;;;;;27.95;47.16;99796.75;10512647;28;20418;-79
2023/08/04 08:31:48;;;;;;;2.80;1.70;;;;;;;28.43;46.11;99805.84;10503830;28;20036;-76
2023/08/04 08:36:50;;;;;;;4.38;1.52;;;;;;;28.36;45.84;99800.28;10520576;28;20410;-76
2023/08/04 08:41:53;;;;;;;1.70;1.50;;;;;;;27.80;46.48;99807.34;10485435;28;20036;-76
2023/08/04 08:46:57;;;;;;;2.70;1.50;;;;;;;27.19;47.90;99807.84;10522637;28;20134;-76
2023/08/04 08:51:59;;;;;;;1.92;1.40;;;;;;;26.87;48.98;99808.03;10522829;28;20044;-76
2023/08/04 08:57:02;;;;;;;7.07;2.03;;;;;;;27.18;47.76;99800.63;10498766;28;20515;-76
2023/08/04 09:02:04;;;;;;;2.13;1.70;;;;;;;27.78;46.05;99801.34;10508484;28;20415;-79
2023/08/04 09:07:06;;;;;;;1.48;1.38;;;;;;;27.31;46.83;99798.91;10521616;28;20048;-79
2023/08/04 09:12:09;;;;;;;2.33;1.50;;;;;;;28.23;45.87;99802.81;10517149;28;20037;-77
2023/08/04 09:17:11;;;;;;;2.25;1.80;;;;;;;28.25;44.86;99805.22;10498569;28;20087;-76
2023/08/04 09:22:13;;;;;;;2.85;1.48;;;;;;;28.68;45.62;99807.53;10515921;28;20060;-77
2023/08/04 09:27:37;;;;;;;2.42;1.60;;;;;;;27.78;46.43;99809.81;10504316;28;20056;-77
2023/08/04 09:32:42;;;;;;;4.50;1.58;;;;;;;27.36;46.59;99808.94;10486592;28;20037;-77
2023/08/04 09:37:46;;;;;;;1.83;1.40;;;;;;;25.73;50.29;99807.69;10524315;28;20621;-77
2023/08/04 09:42:48;;;;;;;2.10;1.60;;;;;;;24.12;55.58;99806.50;10502967;28;20049;-77
2023/08/04 09:47:51;;;;;;;1.70;1.33;;;;;;;24.87;54.29;99807.63;10524490;28;20040;-77
2023/08/04 09:53:01;;;;;;;1.92;1.42;;;;;;;24.54;55.50;99805.91;10529134;28;20470;-77
2023/08/04 09:58:04;;;;;;;2.63;1.67;;;;;;;24.63;55.01;99799.91;10526353;28;20052;-77
2023/08/04 10:03:07;;;;;;;4.00;1.60;;;;;;;24.52;55.70;99802.72;10498746;28;20036;-78
2023/08/04 10:08:10;;;;;;;1.85;1.40;;;;;;;24.81;53.95;99795.16;10529819;28;20044;-77
2023/08/04 10:13:12;;;;;;;1.77;1.55;;;;;;;24.81;53.64;99805.56;10525573;28;20580;-77
2023/08/04 10:18:15;;;;;;;1.73;1.40;;;;;;;24.31;54.69;99802.66;10490847;28;20051;-77
2023/08/04 10:23:17;;;;;;;1.98;1.48;;;;;;;24.29;54.18;99808.63;10512101;28;20044;-78
2023/08/04 10:28:19;;;;;;;1.58;1.35;;;;;;;24.14;53.59;99798.53;10506452;28;20123;-77
2023/08/04 10:33:21;;;;;;;1.40;1.30;;;;;;;24.37;54.11;99811.47;10489224;28;20041;-78
2023/08/04 10:38:24;;;;;;;2.15;1.33;;;;;;;24.50;53.20;99793.09;10530018;28;20518;-78
2023/08/04 10:43:26;;;;;;;3.17;1.52;;;;;;;24.46;54.33;99792.25;10533217;28;20496;-78
2023/08/04 10:48:28;;;;;;;2.85;1.30;;;;;;;24.67;53.19;99797.94;10469543;28;20060;-78
2023/08/04 10:53:31;;;;;;;4.45;1.48;;;;;;;24.94;53.02;99787.97;10487042;28;20045;-77
2023/08/04 10:58:33;;;;;;;1.20;1.10;;;;;;;25.38;52.76;99798.06;10487300;28;20044;-78
2023/08/04 11:03:36;;;;;;;4.10;1.20;;;;;;;25.15;52.69;99794.81;10477017;28;20380;-78
2023/08/04 11:08:39;;;;;;;2.08;1.30;;;;;;;25.43;51.05;99799.66;10487939;28;20442;-79
2023/08/04 11:13:41;;;;;;;1.75;1.33;;;;;;;25.01;51.77;99789.22;10468331;28;20040;-77
2023/08/04 11:18:43;;;;;;;1.45;1.35;;;;;;;24.98;51.22;99793.56;10466266;28;20041;-77
2023/08/04 11:23:45;;;;;;;1.38;1.10;;;;;;;24.77;51.68;99791.53;10484789;28;20033;-78
2023/08/04 11:28:48;;;;;;;1.73;1.20;;;;;;;24.76;51.81;99794.75;10487100;28;20075;-78
2023/08/04 11:33:51;;;;;;;2.67;1.42;;;;;;;24.90;52.05;99801.19;10453746;28;20025;-77
2023/08/04 11:38:53;;;;;;;1.83;1.30;;;;;;;24.79;52.45;99803.16;10466807;28;20044;-83
2023/08/04 11:43:56;;;;;;;2.05;1.25;;;;;;;24.94;51.52;99806.81;10476114;28;20056;-90
2023/08/04 11:48:58;;;;;;;1.65;1.05;;;;;;;24.51;51.77;99800.31;10454598;28;20044;-86
2023/08/04 11:54:00;;;;;;;2.65;1.08;;;;;;;24.12;53.78;99798.09;10449866;28;20044;-79
2023/08/04 11:59:10;;;;;;;1.50;1.40;;;;;;;24.38;53.26;99807.47;10520582;28;20036;-78
2023/08/04 12:04:23;;;;;;;1.95;1.30;;;;;;;24.23;54.17;99804.56;10460332;28;20037;-80
2023/08/04 12:09:26;;;;;;;1.40;1.20;;;;;;;23.89;54.68;99814.38;10514396;28;20043;-78
2023/08/04 12:14:29;;;;;;;1.40;1.30;;;;;;;23.65;56.85;99827.84;10508164;28;20072;-76
2023/08/04 12:19:32;;;;;;;3.17;1.20;;;;;;;23.16;59.17;99822.63;10524408;28;20041;-76
2023/08/04 12:24:35;;;;;;;2.08;1.33;;;;;;;22.88;60.67;99823.13;10511418;28;20040;-76
2023/08/04 12:29:38;;;;;;;2.75;1.35;;;;;;;22.67;61.95;99839.66;10509642;28;20048;-76
2023/08/04 12:34:40;;;;;;;1.92;1.42;;;;;;;22.14;65.19;99854.56;10515533;28;20036;-76
2023/08/04 12:39:45;;;;;;;3.40;1.20;;;;;;;20.37;77.88;99930.22;10517904;28;20040;-73
2023/08/04 12:44:48;;;;;;;1.73;1.00;;;;;;;19.36;87.05;99962.31;10521230;28;20056;-73
2023/08/04 12:49:50;;;;;;;4.50;1.15;;;;;;;18.90;87.14;99927.66;10535342;28;20056;-73
2023/08/04 12:54:52;;;;;;;2.50;1.20;;;;;;;19.00;85.99;99906.91;10526296;28;20051;-74
2023/08/04 12:59:55;;;;;;;1.23;0.88;;;;;;;19.32;82.08;99886.31;10535765;28;20071;-74
2023/08/04 13:04:57;;;;;;;1.10;0.65;;;;;;;19.81;78.45;99883.19;10502751;28;20041;-73
2023/08/04 13:09:59;;;;;;;1.15;0.80;;;;;;;19.91;80.42;99890.97;10503021;28;20056;-74
2023/08/04 13:15:03;;;;;;;1.73;0.80;;;;;;;19.68;83.84;99917.84;10505753;28;20118;-73
2023/08/04 13:20:08;;;;;;;3.92;1.60;;;;;;;19.69;86.12;99917.47;10501531;28;20044;-74
2023/08/04 13:25:10;;;;;;;2.97;0.93;;;;;;;19.74;85.80;99910.81;10528267;28;20036;-74
2023/08/04 13:30:13;;;;;;;1.23;1.00;;;;;;;20.04;81.85;99903.59;10527560;28;20514;-74
2023/08/04 13:35:15;;;;;;;2.33;0.98;;;;;;;20.22;80.66;99915.16;10518791;28;20044;-74
2023/08/04 13:40:18;;;;;;;2.20;1.00;;;;;;;20.46;81.01;99923.28;10520833;28;20057;-75
2023/08/04 13:45:20;;;;;;;8.38;1.00;;;;;;;20.51;79.21;99915.81;10528400;28;20043;-74
2023/08/04 13:50:22;;;;;;;3.95;1.33;;;;;;;20.62;80.26;99920.44;10524416;28;20037;-75
2023/08/04 13:55:24;;;;;;;2.17;1.38;;;;;;;20.54;78.88;99920.66;10519334;28;20056;-75
2023/08/04 14:00:27;;;;;;;2.90;1.40;;;;;;;20.57;80.25;99920.72;10521210;28;20051;-75
2023/08/04 14:05:29;;;;;;;1.70;1.25;;;;;;;20.64;79.04;99922.84;10526530;28;20044;-73
2023/08/04 14:10:31;;;;;;;2.05;1.30;;;;;;;20.67;78.01;99922.94;10502902;28;20045;-73
2023/08/04 14:15:39;;;;;;;2.53;1.55;;;;;;;20.64;78.08;99925.63;10514853;28;20226;-77
2023/08/04 14:20:41;;;;;;;5.07;1.20;;;;;;;20.90;75.97;99933.38;10522449;28;20165;-85
2023/08/04 14:25:47;;;;;;;3.42;1.60;;;;;;;20.99;75.34;99931.13;10504262;28;20037;-76
2023/08/04 14:30:49;;;;;;;1.73;1.60;;;;;;;21.14;75.22;99932.22;10527509;28;20059;-77
2023/08/04 14:35:51;;;;;;;1.83;1.30;;;;;;;21.07;75.19;99942.09;10506843;28;20032;-76
2023/08/04 14:40:54;;;;;;;1.75;1.27;;;;;;;21.10;75.03;99926.59;10527301;28;20051;-76
2023/08/04 14:45:56;;;;;;;1.70;1.58;;;;;;;21.18;75.50;99933.94;10527849;28;20438;-76
2023/08/04 14:50:58;;;;;;;1.55;1.38;;;;;;;21.35;74.65;99941.84;10519976;28;20040;-78
2023/08/04 14:56:02;;;;;;;2.90;1.65;;;;;;;21.38;75.15;99943.09;10515855;28;20044;-77
2023/08/04 15:01:05;;;;;;;3.40;1.25;;;;;;;21.18;74.28;99942.31;10505731;28;20040;-76
2023/08/04 15:06:18;;;;;;;1.80;1.40;;;;;;;21.29;75.43;99939.72;10474028;28;20036;-76
2023/08/04 15:11:21;;;;;;;1.40;1.30;;;;;;;21.39;73.64;99949.47;10489792;28;20211;-81
2023/08/04 15:16:23;;;;;;;2.38;1.30;;;;;;;21.17;73.44;99949.03;10522231;28;20529;-73
2023/08/04 15:21:26;;;;;;;3.17;1.70;;;;;;;21.14;72.58;99963.72;10512963;28;20056;-85
2023/08/04 15:26:29;;;;;;;1.67;1.45;;;;;;;21.08;71.86;99968.00;10500014;28;20056;-76
2023/08/04 15:31:31;;;;;;;2.83;1.20;;;;;;;21.00;70.85;99977.38;10518031;28;20048;-76
2023/08/04 15:36:34;;;;;;;1.55;1.30;;;;;;;21.08;69.88;99984.72;10515651;28;20086;-73
2023/08/04 15:41:36;;;;;;;2.25;2.05;;;;;;;21.09;69.67;99983.56;10516819;28;20418;-72
2023/08/04 15:46:38;;;;;;;4.22;2.40;;;;;;;21.06;70.59;99976.72;10526139;28;20486;-72
2023/08/04 15:51:41;;;;;;;3.28;1.60;;;;;;;21.06;70.75;99964.78;10517525;28;20044;-72
2023/08/04 15:56:43;;;;;;;1.75;1.17;;;;;;;21.11;71.95;99966.44;10520951;28;20043;-75
2023/08/04 16:01:45;;;;;;;1.95;1.38;;;;;;;21.22;71.83;99967.47;10498920;28;20044;-72
2023/08/04 16:06:48;;;;;;;3.50;1.80;;;;;;;21.18;72.82;99980.56;10510800;28;20052;-72
2023/08/04 16:11:50;;;;;;;2.15;1.70;;;;;;;21.12;72.26;99987.59;10525841;28;20055;-72
2023/08/04 16:16:53;;;;;;;1.75;1.52;;;;;;;21.05;72.74;99974.31;10514714;28;20049;-72
2023/08/04 16:21:55;;;;;;;1.63;1.27;;;;;;;20.91;72.85;99990.75;10530519;28;20052;-72
2023/08/04 16:26:57;;;;;;;2.60;1.50;;;;;;;20.82;73.16;99993.75;10531760;28;20056;-72
2023/08/04 16:32:00;;;;;;;1.48;1.25;;;;;;;20.85;72.17;99981.06;10514330;28;20044;-72
2023/08/04 16:37:02;;;;;;;2.47;1.67;;;;;;;20.90;71.03;99995.53;10529742;28;20049;-72
2023/08/04 16:42:05;;;;;;;2.53;1.98;;;;;;;20.99;70.97;99993.31;10530547;28;20037;-73
2023/08/04 16:47:07;;;;;;;3.28;1.92;;;;;;;20.94;71.73;100010.34;10528598;28;20040;-72
2023/08/04 16:52:09;;;;;;;3.40;1.80;;;;;;;20.76;73.53;100009.97;10528667;28;20049;-72
2023/08/04 16:57:12;;;;;;;1.88;1.60;;;;;;;20.69;73.47;100011.81;10503961;28;20037;-72
2023/08/04 17:02:14;;;;;;;3.28;1.77;;;;;;;20.62;74.11;100006.84;10528899;28;20040;-72
2023/08/04 17:07:17;;;;;;;2.80;1.98;;;;;;;20.57;74.41;100015.50;10528356;28;20052;-74
2023/08/04 17:12:19;;;;;;;4.18;2.00;;;;;;;20.61;74.44;100010.81;10527180;28;20722;-72
2023/08/04 17:17:22;;;;;;;5.07;1.65;;;;;;;20.58;73.80;100019.91;10527131;28;20048;-71
2023/08/04 17:22:29;;;;;;;2.72;1.65;;;;;;;20.60;74.10;100014.78;10522701;28;20052;-73
2023/08/04 17:27:31;;;;;;;1.85;1.50;;;;;;;20.55;73.70;100022.63;10526780;28;20442;-74
2023/08/04 17:32:35;;;;;;;1.40;1.30;;;;;;;20.61;73.57;100024.75;10529301;28;20060;-73
2023/08/04 17:37:37;;;;;;;3.83;2.28;;;;;;;20.62;73.54;100031.94;10504146;28;20462;-74
2023/08/04 17:42:40;;;;;;;2.40;1.50;;;;;;;20.57;74.29;100054.53;10523283;28;20043;-73
2023/08/04 17:47:42;;;;;;;2.40;1.30;;;;;;;19.92;81.00;100062.44;10524081;28;20067;-89
2023/08/04 17:52:51;;;;;;;2.15;1.60;;;;;;;19.26;85.90;100080.50;10522187;28;20040;-82
2023/08/04 17:57:53;;;;;;;3.80;1.52;;;;;;;18.97;87.42;100078.84;10524903;28;20055;-83
2023/08/04 18:02:55;;;;;;;2.15;1.38;;;;;;;18.72;87.84;100093.09;10526298;28;20033;-84
2023/08/04 18:08:04;;;;;;;1.17;1.08;;;;;;;18.55;88.48;100088.56;10519394;28;20048;-77
2023/08/04 18:13:08;;;;;;;1.50;1.05;;;;;;;18.44;88.00;100095.78;10516034;28;20055;-79
2023/08/04 18:18:11;;;;;;;1.48;1.13;;;;;;;18.43;86.96;100103.28;10482003;28;20066;-80
2023/08/04 18:23:15;;;;;;;1.30;1.20;;;;;;;18.43;84.85;100119.97;10503162;28;20052;-74
2023/08/04 18:28:17;;;;;;;1.42;0.90;;;;;;;18.40;82.64;100120.66;10524012;28;20040;-74
2023/08/04 18:33:20;;;;;;;1.38;1.17;;;;;;;18.49;81.58;100117.75;10523026;28;20040;-73
2023/08/04 18:38:23;;;;;;;1.60;0.90;;;;;;;18.55;81.21;100116.34;10484702;28;20039;-73
2023/08/04 18:43:25;;;;;;;1.20;0.98;;;;;;;18.64;81.02;100114.31;10517835;28;20051;-74
2023/08/04 18:48:32;;;;;;;1.25;0.90;;;;;;;18.77;80.43;100135.41;10520637;28;20041;-74
2023/08/04 18:53:35;;;;;;;3.63;1.20;;;;;;;18.86;80.51;100144.41;10519324;28;20056;-74
2023/08/04 18:58:37;;;;;;;1.00;1.00;;;;;;;18.84;80.47;100141.16;10533417;28;20044;-74
2023/08/04 19:04:05;;;;;;;1.55;1.17;;;;;;;18.94;80.86;100145.47;10526549;28;20043;-75
2023/08/04 19:09:07;;;;;;;1.40;1.00;;;;;;;18.90;81.04;100150.88;10479606;28;20411;-75
2023/08/04 19:14:09;;;;;;;1.40;0.73;;;;;;;18.93;80.99;100146.63;10507337;28;20047;-74
2023/08/04 19:19:12;;;;;;;1.35;0.88;;;;;;;18.94;80.91;100157.38;10526680;28;20499;-74
2023/08/04 19:24:19;;;;;;;3.38;0.90;;;;;;;18.85;81.94;100159.47;10501369;28;20041;-74
2023/08/04 19:29:26;;;;;;;0.82;0.82;;;;;;;18.83;82.23;100153.44;10516536;28;20057;-75
2023/08/04 19:34:28;;;;;;;;;;;;;;;18.87;81.73;100148.00;10517629;28;20040;-74
2023/08/04 19:39:31;;;;;;;2.15;1.83;;;;;;;18.90;79.73;100164.78;10521995;28;19927;-73
2023/08/04 19:44:34;;;;;;;3.95;2.25;;;;;;;19.00;79.06;100162.72;10511306;28;20470;-73
2023/08/04 19:49:37;;;;;;;1.33;1.00;;;;;;;19.08;76.80;100170.91;10550346;28;20059;-74
2023/08/04 19:54:40;;;;;;;1.20;1.10;;;;;;;19.22;75.22;100167.75;10526587;28;20045;-74
2023/08/04 19:59:43;;;;;;;4.43;1.25;;;;;;;19.04;76.23;100177.53;10526455;28;20059;-74
2023/08/04 20:04:45;;;;;;;2.15;1.50;;;;;;;18.93;77.97;100189.13;10516128;28;20044;-73
2023/08/04 20:09:47;;;;;;;1.85;1.13;;;;;;;18.86;78.43;100188.88;10526056;28;20055;-73
2023/08/04 20:14:49;;;;;;;1.95;1.17;;;;;;;18.76;79.09;100203.28;10510861;28;20048;-74
2023/08/04 20:19:52;;;;;;;1.23;1.15;;;;;;;18.76;78.92;100202.47;10495463;28;20049;-74
2023/08/04 20:24:54;;;;;;;1.75;1.30;;;;;;;18.77;79.08;100202.09;10485696;28;20052;-74
2023/08/04 20:29:56;;;;;;;1.30;1.20;;;;;;;18.74;78.89;100201.97;10499997;28;20052;-73
2023/08/04 20:34:58;;;;;;;1.42;1.02;;;;;;;18.73;78.84;100200.34;10519228;28;20048;-73
2023/08/04 20:40:00;;;;;;;1.60;1.17;;;;;;;18.76;78.45;100200.50;10524240;28;20056;-74
2023/08/04 20:45:03;;;;;;;3.88;1.25;;;;;;;18.81;77.47;100207.78;10510170;28;20033;-73
2023/08/04 20:50:07;;;;;;;1.75;1.10;;;;;;;18.85;76.81;100212.28;10504986;28;20060;-73
2023/08/04 20:55:09;;;;;;;2.58;1.00;;;;;;;18.80;77.59;100201.41;10480691;28;20049;-73
2023/08/04 21:00:11;;;;;;;2.40;1.33;;;;;;;18.83;78.29;100211.03;10454230;28;20037;-73
2023/08/04 21:05:13;;;;;;;2.83;1.15;;;;;;;18.72;78.82;100215.41;10484427;28;20044;-74
2023/08/04 21:10:16;;;;;;;1.10;1.00;;;;;;;18.63;78.89;100216.34;10471401;28;20056;-72
2023/08/04 21:15:18;;;;;;;2.35;1.15;;;;;;;18.60;78.70;100218.97;10473825;28;20041;-73
2023/08/04 21:20:20;;;;;;;1.60;1.00;;;;;;;18.58;78.83;100218.50;10489656;28;20534;-73
2023/08/04 21:25:22;;;;;;;2.50;1.45;;;;;;;18.51;79.49;100234.91;10489714;28;20044;-73
2023/08/04 21:30:25;;;;;;;2.15;1.10;;;;;;;18.44;80.33;100237.47;10465043;28;20511;-74
2023/08/04 21:35:27;;;;;;;1.55;1.45;;;;;;;18.37;80.67;100227.69;10474493;28;20044;-74
2023/08/04 21:40:29;;;;;;;0.80;0.80;;;;;;;18.29;80.20;100225.84;10471523;28;20056;-74
2023/08/04 21:45:32;;;;;;;1.08;1.00;;;;;;;18.30;79.20;100227.47;10461731;28;20043;-74
2023/08/04 21:50:34;;;;;;;3.08;1.55;;;;;;;18.28;79.82;100227.00;10469975;28;20045;-74
2023/08/04 21:55:36;;;;;;;1.20;1.10;;;;;;;18.30;79.52;100221.91;10493374;28;20071;-74
2023/08/04 22:00:38;;;;;;;1.02;1.00;;;;;;;18.29;79.28;100225.84;10517676;28;20048;-74
2023/08/04 22:05:40;;;;;;;1.02;0.98;;;;;;;18.29;79.23;100231.41;10528971;28;20037;-74
2023/08/04 22:10:44;;;;;;;2.35;1.27;;;;;;;18.28;78.76;100235.34;10512314;28;20049;-74
2023/08/04 22:15:46;;;;;;;0.80;0.80;;;;;;;18.22;78.74;100235.88;10513616;28;20238;-74
2023/08/04 22:20:59;;;;;;;4.13;1.20;;;;;;;18.20;78.67;100233.44;10529530;28;20051;-74
2023/08/04 22:26:03;;;;;;;1.33;0.90;;;;;;;18.11;78.78;100243.84;10529116;28;20055;-74
2023/08/04 22:31:05;;;;;;;1.58;1.00;;;;;;;18.05;79.31;100239.66;10490226;28;20047;-74
2023/08/04 22:36:07;;;;;;;1.73;1.17;;;;;;;18.05;78.89;100246.03;10527214;28;20069;-74
2023/08/04 22:41:09;;;;;;;0.95;0.85;;;;;;;18.05;78.62;100243.25;10528983;28;20040;-74
2023/08/04 22:46:12;;;;;;;0.93;0.90;;;;;;;18.06;78.50;100239.31;10525486;28;20040;-74
2023/08/04 22:51:14;;;;;;;1.23;1.10;;;;;;;18.05;78.26;100237.69;10527232;28;20052;-74
2023/08/04 22:56:16;;;;;;;1.10;1.00;;;;;;;18.02;78.81;100243.91;10527027;28;20243;-74
2023/08/04 23:01:19;;;;;;;1.42;1.10;;;;;;;18.02;78.47;100262.53;10495692;28;20053;-74
2023/08/04 23:06:21;;;;;;;1.05;0.95;;;;;;;18.00;78.93;100264.84;10470443;28;20052;-74
2023/08/04 23:11:23;;;;;;;2.20;1.05;;;;;;;17.96;78.66;100261.13;10524961;28;20051;-74
2023/08/04 23:16:25;;;;;;;1.48;1.27;;;;;;;17.88;79.29;100256.47;10527317;28;20063;-74
2023/08/04 23:21:28;;;;;;;1.10;1.10;;;;;;;17.90;79.50;100265.25;10507807;28;20037;-74
2023/08/04 23:26:30;;;;;;;1.00;0.90;;;;;;;17.86;79.83;100278.97;10523456;28;20052;-74